createdAt,value
2018-01-16T00:01:54.062Z,6.60
2018-01-16T00:04:23.387Z,6.60
2018-01-16T00:06:52.717Z,6.60
2018-01-16T00:09:22.005Z,6.50
2018-01-16T00:11:51.238Z,6.40
2018-01-16T00:14:21.301Z,6.40
2018-01-16T00:16:50.574Z,6.40
2018-01-16T00:19:20.007Z,6.40
2018-01-16T00:21:49.348Z,6.40
2018-01-16T00:24:18.591Z,6.40
2018-01-16T00:26:47.816Z,6.50
2018-01-16T00:29:17.097Z,6.50
2018-01-16T00:31:46.375Z,6.60
2018-01-16T00:34:15.633Z,6.60
2018-01-16T00:36:46.388Z,6.70
2018-01-16T00:39:15.865Z,6.70
2018-01-16T00:41:45.073Z,6.70
2018-01-16T00:44:14.329Z,6.80
2018-01-16T00:46:43.562Z,6.80
2018-01-16T00:49:12.865Z,6.80
2018-01-16T00:51:42.194Z,6.80
2018-01-16T00:54:11.451Z,6.80
2018-01-16T00:56:40.702Z,6.90
2018-01-16T00:59:10.845Z,6.80
2018-01-16T01:01:40.096Z,6.80
2018-01-16T01:04:09.341Z,6.80
2018-01-16T01:06:38.613Z,6.80
2018-01-16T01:09:07.840Z,6.90
2018-01-16T01:11:37.095Z,6.90
2018-01-16T01:14:06.333Z,7.00
2018-01-16T01:16:35.581Z,7.00
2018-01-16T01:19:04.821Z,7.00
2018-01-16T01:21:34.861Z,7.00
2018-01-16T01:24:04.187Z,7.00
2018-01-16T01:26:33.407Z,7.00
2018-01-16T01:29:02.696Z,6.90
2018-01-16T01:31:32.044Z,6.90
2018-01-16T01:34:04.139Z,6.80
2018-01-16T01:36:34.365Z,6.80
2018-01-16T01:39:04.610Z,6.80
2018-01-16T01:41:33.891Z,6.90
2018-01-16T01:44:03.145Z,6.70
2018-01-16T01:46:32.997Z,6.80
2018-01-16T01:49:13.915Z,6.80
2018-01-16T01:51:43.932Z,6.90
2018-01-16T01:54:13.270Z,7.00
2018-01-16T01:56:42.540Z,7.00
2018-01-16T01:59:11.815Z,7.10
2018-01-16T02:01:41.077Z,7.10
2018-01-16T02:04:10.299Z,7.10
2018-01-16T02:06:39.540Z,7.20
2018-01-16T02:09:08.814Z,7.30
2018-01-16T02:11:38.151Z,7.30
2018-01-16T02:14:07.379Z,7.30
2018-01-16T02:16:36.650Z,7.20
2018-01-16T02:19:05.896Z,7.20
2018-01-16T02:21:36.178Z,7.30
2018-01-16T02:24:05.425Z,7.30
2018-01-16T02:26:34.698Z,7.40
2018-01-16T02:29:03.955Z,7.40
2018-01-16T02:31:33.299Z,7.40
2018-01-16T02:34:03.774Z,7.40
2018-01-16T02:36:33.123Z,7.40
2018-01-16T02:39:02.440Z,7.30
2018-01-16T02:41:31.764Z,7.40
2018-01-16T02:44:01.905Z,7.50
2018-01-16T02:46:31.173Z,7.40
2018-01-16T02:49:00.427Z,7.40
2018-01-16T02:51:29.642Z,7.30
2018-01-16T02:53:58.890Z,7.30
2018-01-16T02:56:28.172Z,7.40
2018-01-16T02:58:57.563Z,7.40
2018-01-16T03:01:27.583Z,7.40
2018-01-16T03:03:56.833Z,7.40
2018-01-16T03:06:26.086Z,7.40
2018-01-16T03:08:56.108Z,7.50
2018-01-16T03:11:25.439Z,7.40
2018-01-16T03:13:54.694Z,7.30
2018-01-16T03:16:23.966Z,7.40
2018-01-16T03:18:53.212Z,7.30
2018-01-16T03:21:23.212Z,7.20
2018-01-16T03:23:52.619Z,7.20
2018-01-16T03:26:21.853Z,7.20
2018-01-16T03:28:51.213Z,7.10
2018-01-16T03:31:20.461Z,7.10
2018-01-16T03:33:49.783Z,7.10
2018-01-16T03:36:19.034Z,7.10
2018-01-16T03:38:48.280Z,7.00
2018-01-16T03:41:17.517Z,6.80
2018-01-16T03:43:46.755Z,6.90
2018-01-16T03:46:16.196Z,6.90
2018-01-16T03:48:45.443Z,6.90
2018-01-16T03:51:15.450Z,6.80
2018-01-16T03:53:44.681Z,6.80
2018-01-16T03:56:13.961Z,6.90
2018-01-16T03:58:43.993Z,6.90
2018-01-16T04:01:13.255Z,6.90
2018-01-16T04:03:44.212Z,7.00
2018-01-16T04:06:13.466Z,7.00
2018-01-16T04:08:42.892Z,6.90
2018-01-16T04:11:12.173Z,7.00
2018-01-16T04:13:41.414Z,7.10
2018-01-16T04:16:12.903Z,7.10
2018-01-16T04:18:42.134Z,7.00
2018-01-16T04:21:11.385Z,7.00
2018-01-16T04:23:40.653Z,6.90
2018-01-16T04:26:09.873Z,7.00
2018-01-16T04:28:39.872Z,7.10
2018-01-16T04:31:09.133Z,7.10
2018-01-16T04:33:38.351Z,7.00
2018-01-16T04:36:07.612Z,7.00
2018-01-16T04:38:36.857Z,7.00
2018-01-16T04:41:06.248Z,7.00
2018-01-16T04:43:35.496Z,7.00
2018-01-16T04:46:04.762Z,6.90
2018-01-16T04:48:33.992Z,6.90
2018-01-16T04:51:04.000Z,6.70
2018-01-16T04:53:33.250Z,6.60
2018-01-16T04:56:02.505Z,6.50
2018-01-16T04:58:31.727Z,6.40
2018-01-16T05:01:00.997Z,6.40
2018-01-16T05:03:30.230Z,6.40
2018-01-16T05:05:59.500Z,6.40
2018-01-16T05:08:28.773Z,6.40
2018-01-16T05:10:58.017Z,6.40
2018-01-16T05:13:27.248Z,6.40
2018-01-16T05:15:57.273Z,6.50
2018-01-16T05:18:26.526Z,6.40
2018-01-16T05:20:55.803Z,6.40
2018-01-16T05:23:25.325Z,6.40
2018-01-16T05:25:54.532Z,6.40
2018-01-16T05:28:23.936Z,6.50
2018-01-16T05:30:53.161Z,6.50
2018-01-16T05:33:22.420Z,6.60
2018-01-16T05:35:51.641Z,6.60
2018-01-16T05:38:20.936Z,6.60
2018-01-16T05:40:50.195Z,6.70
2018-01-16T05:43:19.439Z,6.70
2018-01-16T05:45:48.698Z,6.70
2018-01-16T05:48:17.981Z,6.70
2018-01-16T05:50:47.234Z,6.60
2018-01-16T05:53:16.517Z,6.70
2018-01-16T05:55:45.770Z,6.70
2018-01-16T05:58:15.029Z,6.70
2018-01-16T06:00:44.320Z,6.70
2018-01-16T06:03:13.590Z,6.70
2018-01-16T06:05:42.847Z,6.80
2018-01-16T06:08:12.084Z,6.70
2018-01-16T06:10:41.313Z,6.70
2018-01-16T06:13:10.564Z,6.80
2018-01-16T06:15:39.807Z,6.80
2018-01-16T06:18:09.052Z,6.70
2018-01-16T06:20:39.044Z,6.70
2018-01-16T06:23:08.303Z,6.60
2018-01-16T06:25:37.565Z,6.60
2018-01-16T06:28:07.593Z,6.60
2018-01-16T06:30:36.913Z,6.50
2018-01-16T06:33:06.789Z,6.60
2018-01-16T06:35:35.993Z,6.60
2018-01-16T06:38:05.256Z,6.60
2018-01-16T06:40:34.530Z,6.60
2018-01-16T06:43:03.785Z,6.60
2018-01-16T06:45:33.043Z,6.60
2018-01-16T06:48:02.274Z,6.60
2018-01-16T06:50:31.508Z,6.60
2018-01-16T06:53:00.756Z,6.40
2018-01-16T06:55:30.004Z,6.40
2018-01-16T06:57:59.241Z,6.30
2018-01-16T07:00:28.487Z,6.20
2018-01-16T07:02:57.729Z,6.10
2018-01-16T07:05:26.957Z,6.10
2018-01-16T07:07:56.225Z,6.10
2018-01-16T07:10:25.463Z,6.20
2018-01-16T07:12:54.703Z,6.30
2018-01-16T07:15:24.104Z,6.30
2018-01-16T07:17:54.148Z,6.50
2018-01-16T07:20:23.402Z,6.50
2018-01-16T07:22:52.646Z,6.50
2018-01-16T07:25:21.876Z,6.60
2018-01-16T07:27:51.105Z,6.60
2018-01-16T07:30:20.358Z,6.60
2018-01-16T07:32:49.602Z,6.60
2018-01-16T07:35:18.903Z,6.50
2018-01-16T07:37:48.185Z,6.50
2018-01-16T07:40:17.429Z,6.60
2018-01-16T07:42:47.445Z,6.60
2018-01-16T07:45:16.877Z,6.60
2018-01-16T07:47:46.871Z,6.80
2018-01-16T07:50:16.126Z,6.70
2018-01-16T07:52:45.362Z,6.80
2018-01-16T07:55:14.612Z,6.80
2018-01-16T07:57:43.891Z,6.80
2018-01-16T08:00:13.255Z,6.90
2018-01-16T08:02:42.678Z,6.90
2018-01-16T08:05:11.933Z,6.90
2018-01-16T08:07:41.194Z,6.80
2018-01-16T08:10:11.192Z,7.00
2018-01-16T08:12:40.417Z,7.00
2018-01-16T08:15:09.669Z,7.10
2018-01-16T08:17:38.914Z,7.30
2018-01-16T08:20:08.180Z,7.30
2018-01-16T08:22:38.202Z,7.40
2018-01-16T08:25:07.459Z,7.60
2018-01-16T08:27:36.847Z,7.60
2018-01-16T08:30:06.100Z,7.50
2018-01-16T08:32:35.329Z,7.40
2018-01-16T08:35:04.597Z,7.40
2018-01-16T08:37:33.854Z,7.50
2018-01-16T08:40:03.121Z,7.40
2018-01-16T08:42:32.342Z,7.60
2018-01-16T08:45:01.588Z,7.80
2018-01-16T08:47:30.865Z,7.80
2018-01-16T08:50:00.119Z,7.90
2018-01-16T08:52:29.368Z,7.80
2018-01-16T08:54:59.368Z,7.90
2018-01-16T08:57:30.147Z,7.90
2018-01-16T08:59:59.385Z,7.90
2018-01-16T09:02:28.648Z,7.80
2018-01-16T09:04:57.946Z,7.80
2018-01-16T09:07:27.932Z,7.60
2018-01-16T09:09:57.199Z,7.60
2018-01-16T09:12:26.450Z,7.50
2018-01-16T09:14:56.452Z,7.40
2018-01-16T09:17:25.712Z,7.40
2018-01-16T09:19:55.177Z,7.50
2018-01-16T09:22:25.189Z,7.70
2018-01-16T09:24:54.605Z,7.80
2018-01-16T09:27:23.891Z,7.70
2018-01-16T09:29:53.194Z,7.80
2018-01-16T09:32:23.440Z,8.10
2018-01-16T09:34:53.150Z,8.10
2018-01-16T09:37:22.405Z,7.90
2018-01-16T09:39:51.657Z,7.80
2018-01-16T09:42:20.893Z,7.70
2018-01-16T09:44:50.156Z,7.60
2018-01-16T09:47:19.400Z,7.50
2018-01-16T09:49:48.643Z,7.60
2018-01-16T09:52:18.665Z,7.30
2018-01-16T09:54:47.919Z,7.30
2018-01-16T09:57:17.340Z,7.30
2018-01-16T09:59:46.559Z,7.20
2018-01-16T10:02:15.803Z,7.40
2018-01-16T10:04:45.038Z,7.40
2018-01-16T10:07:14.329Z,7.40
2018-01-16T10:09:43.581Z,7.40
2018-01-16T10:12:12.858Z,7.30
2018-01-16T10:14:42.088Z,7.40
2018-01-16T10:17:11.340Z,7.50
2018-01-16T10:19:40.574Z,7.50
2018-01-16T10:22:09.832Z,7.60
2018-01-16T10:24:39.074Z,7.70
2018-01-16T10:27:08.333Z,7.70
2018-01-16T10:29:37.648Z,7.90
2018-01-16T10:32:06.866Z,8.00
2018-01-16T10:34:36.116Z,8.10
2018-01-16T10:37:05.458Z,8.30
2018-01-16T10:39:34.697Z,8.30
2018-01-16T10:42:04.185Z,8.30
2018-01-16T10:44:34.305Z,8.40
2018-01-16T10:47:03.581Z,9.50
2018-01-16T10:49:33.619Z,13.70
2018-01-16T10:52:02.897Z,13.70
2018-01-16T10:54:32.181Z,15.00
2018-01-16T10:57:01.504Z,14.60
2018-01-16T10:59:30.954Z,13.90
2018-01-16T11:02:00.296Z,12.60
2018-01-16T11:04:29.563Z,12.30
2018-01-16T11:06:59.554Z,12.30
2018-01-16T11:09:28.837Z,13.00
2018-01-16T11:11:58.082Z,14.60
2018-01-16T11:14:27.364Z,15.00
2018-01-16T11:16:56.600Z,15.10
2018-01-16T11:19:25.887Z,16.40
2018-01-16T11:21:55.156Z,15.20
2018-01-16T11:24:24.430Z,15.10
2018-01-16T11:26:53.689Z,15.90
2018-01-16T11:29:22.952Z,15.30
2018-01-16T11:31:52.972Z,15.60
2018-01-16T11:34:22.445Z,15.60
2018-01-16T11:36:51.770Z,15.90
2018-01-16T11:39:21.029Z,16.10
2018-01-16T11:41:50.295Z,15.30
2018-01-16T11:44:19.575Z,15.50
2018-01-16T11:46:49.590Z,14.30
2018-01-16T11:49:18.890Z,14.30
2018-01-16T11:51:48.174Z,14.40
2018-01-16T11:54:17.410Z,14.40
2018-01-16T11:56:46.815Z,14.50
2018-01-16T11:59:16.087Z,14.90
2018-01-16T12:01:45.360Z,15.80
2018-01-16T12:04:14.611Z,14.20
2018-01-16T12:06:43.921Z,14.90
2018-01-16T12:09:13.198Z,15.00
2018-01-16T12:11:42.431Z,14.80
2018-01-16T12:14:11.716Z,14.40
2018-01-16T12:16:40.982Z,13.60
2018-01-16T12:19:10.271Z,12.50
2018-01-16T12:21:39.534Z,12.40
2018-01-16T12:24:08.787Z,12.10
2018-01-16T12:26:38.041Z,11.90
2018-01-16T12:29:07.298Z,12.30
2018-01-16T12:31:36.560Z,12.40
2018-01-16T12:34:05.841Z,11.90
2018-01-16T12:36:35.090Z,11.50
2018-01-16T12:39:04.412Z,11.70
2018-01-16T12:41:33.652Z,11.90
2018-01-16T12:44:02.902Z,11.80
2018-01-16T12:46:32.169Z,12.20
2018-01-16T12:49:01.413Z,12.50
2018-01-16T12:51:30.695Z,12.60
2018-01-16T12:53:59.974Z,12.60
2018-01-16T12:56:29.262Z,12.50
2018-01-16T12:58:58.547Z,11.70
2018-01-16T13:01:27.781Z,10.70
2018-01-16T13:03:57.030Z,10.40
2018-01-16T13:06:27.026Z,10.00
2018-01-16T13:08:56.374Z,9.90
2018-01-16T13:11:25.798Z,9.60
2018-01-16T13:13:55.062Z,9.50
2018-01-16T13:16:24.318Z,9.40
2018-01-16T13:18:53.577Z,9.30
2018-01-16T13:21:22.823Z,9.20
2018-01-16T13:23:52.065Z,9.10
2018-01-16T13:26:21.521Z,8.90
2018-01-16T13:28:50.759Z,8.80
2018-01-16T13:31:20.017Z,8.80
2018-01-16T13:33:49.267Z,8.90
2018-01-16T13:36:19.310Z,8.90
2018-01-16T13:38:48.512Z,8.90
2018-01-16T13:41:17.764Z,9.00
2018-01-16T13:43:47.813Z,8.80
2018-01-16T13:46:17.057Z,8.80
2018-01-16T13:48:46.309Z,8.70
2018-01-16T13:51:15.561Z,8.60
2018-01-16T13:53:44.799Z,8.50
2018-01-16T13:56:14.065Z,8.30
2018-01-16T13:58:43.920Z,8.20
2018-01-16T14:01:14.045Z,8.10
2018-01-16T14:03:43.347Z,8.10
2018-01-16T14:06:12.575Z,8.20
2018-01-16T14:08:41.856Z,8.10
2018-01-16T14:11:11.089Z,8.10
2018-01-16T14:13:40.317Z,8.20
2018-01-16T14:16:09.572Z,8.40
2018-01-16T14:18:38.852Z,8.60
2018-01-16T14:21:08.108Z,8.90
2018-01-16T14:23:38.931Z,9.20
2018-01-16T14:26:08.158Z,9.20
2018-01-16T14:28:37.425Z,9.20
2018-01-16T14:31:06.659Z,8.90
2018-01-16T14:33:36.665Z,8.80
2018-01-16T14:36:06.172Z,8.80
2018-01-16T14:38:35.398Z,8.70
2018-01-16T14:41:05.403Z,8.30
2018-01-16T14:43:34.653Z,8.30
2018-01-16T14:46:03.936Z,8.40
2018-01-16T14:48:33.210Z,8.30
2018-01-16T14:51:02.445Z,8.20
2018-01-16T14:53:31.680Z,8.10
2018-01-16T14:56:01.942Z,8.00
2018-01-16T14:58:31.964Z,7.80
2018-01-16T15:01:01.209Z,7.80
2018-01-16T15:03:30.514Z,7.70
2018-01-16T15:05:59.764Z,7.70
2018-01-16T16:29:01.545Z,6.70
2018-01-16T16:31:30.837Z,6.70
2018-01-16T16:34:00.081Z,6.60
2018-01-16T16:36:30.844Z,6.60
2018-01-16T16:39:00.101Z,6.60
2018-01-16T16:41:29.402Z,6.60
2018-01-16T16:43:58.624Z,6.50
2018-01-16T16:46:27.854Z,6.60
2018-01-16T16:48:57.101Z,6.60
2018-01-16T16:51:26.373Z,6.60
2018-01-16T16:53:55.605Z,6.60
2018-01-16T16:56:24.873Z,6.60
2018-01-16T16:58:54.118Z,6.60
2018-01-16T17:01:23.374Z,6.60
2018-01-16T17:03:52.754Z,6.50
2018-01-16T17:06:22.022Z,6.50
2018-01-16T17:08:51.274Z,6.50
2018-01-16T17:11:20.589Z,6.60
2018-01-16T17:13:49.844Z,6.60
2018-01-16T17:16:19.114Z,6.60
2018-01-16T17:18:48.449Z,6.60
2018-01-16T17:21:17.707Z,6.70
2018-01-16T17:23:47.005Z,6.60
2018-01-16T17:26:16.249Z,6.60
2018-01-16T17:28:45.485Z,6.60
2018-01-16T17:31:14.734Z,6.60
2018-01-16T17:33:43.979Z,6.60
2018-01-16T17:36:13.240Z,6.50
2018-01-16T17:38:42.498Z,6.40
2018-01-16T17:41:11.774Z,6.40
2018-01-16T17:43:40.978Z,6.40
2018-01-16T17:46:10.276Z,6.40
2018-01-16T17:48:40.304Z,6.40
2018-01-16T17:51:09.548Z,6.40
2018-01-16T17:53:38.829Z,6.40
2018-01-16T17:56:08.073Z,6.40
2018-01-16T17:58:37.366Z,6.30
2018-01-16T18:01:06.602Z,6.30
2018-01-16T18:03:35.853Z,6.30
2018-01-16T18:06:05.090Z,6.20
2018-01-16T18:08:34.386Z,6.20
2018-01-16T18:11:04.397Z,6.20
2018-01-16T18:13:33.636Z,6.10
2018-01-16T18:16:02.910Z,6.10
2018-01-16T18:18:32.174Z,6.10
2018-01-16T18:21:01.451Z,6.10
2018-01-16T18:23:30.729Z,6.10
2018-01-16T18:25:59.965Z,6.10
2018-01-16T18:28:29.235Z,6.10
2018-01-16T18:30:58.517Z,6.00
2018-01-16T18:33:27.802Z,6.00
2018-01-16T18:35:57.045Z,5.90
2018-01-16T18:38:26.321Z,5.90
2018-01-16T18:40:56.605Z,5.70
2018-01-16T18:43:25.869Z,5.70
2018-01-16T18:45:55.106Z,5.70
2018-01-16T18:48:24.381Z,5.70
2018-01-16T18:50:53.632Z,5.70
2018-01-16T18:53:23.658Z,5.70
2018-01-16T18:55:53.072Z,5.60
2018-01-16T18:58:23.118Z,5.50
2018-01-16T19:00:52.442Z,5.50
2018-01-16T19:03:21.706Z,5.50
2018-01-16T19:05:55.168Z,5.30
2018-01-16T19:08:24.411Z,5.30
2018-01-16T19:10:53.668Z,5.20
2018-01-16T19:13:22.922Z,5.20
2018-01-16T19:15:52.172Z,5.10
2018-01-16T19:18:21.394Z,5.10
2018-01-16T19:20:50.658Z,5.00
2018-01-16T19:23:19.973Z,4.90
2018-01-16T19:25:49.449Z,4.90
2018-01-16T19:28:18.809Z,4.80
2018-01-16T19:30:48.057Z,4.80
2018-01-16T19:33:17.318Z,4.60
2018-01-16T19:35:46.550Z,4.50
2018-01-16T19:38:16.586Z,4.40
2018-01-16T19:40:45.877Z,4.30
2018-01-16T19:43:15.099Z,4.20
2018-01-16T19:45:44.347Z,4.10
2018-01-16T19:48:13.634Z,4.00
2018-01-16T19:50:42.879Z,3.90
2018-01-16T19:53:12.179Z,3.80
2018-01-16T19:55:41.476Z,3.80
2018-01-16T19:58:10.735Z,3.80
2018-01-16T20:00:40.173Z,3.90
2018-01-16T20:03:10.206Z,4.30
2018-01-16T20:05:39.474Z,4.30
2018-01-16T20:08:08.747Z,4.50
2018-01-16T20:10:38.011Z,4.50
2018-01-16T20:13:08.026Z,4.60
2018-01-16T20:15:37.284Z,4.60
2018-01-16T20:18:06.543Z,4.70
2018-01-16T20:20:35.789Z,4.70
2018-01-16T20:23:05.079Z,4.60
2018-01-16T20:25:34.334Z,4.60
2018-01-16T20:28:03.590Z,4.50
2018-01-16T20:30:32.837Z,4.60
2018-01-16T20:33:02.113Z,4.60
2018-01-16T20:35:32.159Z,4.50
2018-01-16T20:38:01.455Z,4.50
2018-01-16T20:40:30.694Z,4.50
2018-01-16T20:42:59.984Z,4.40
2018-01-16T20:45:29.272Z,4.40
2018-01-16T20:47:58.526Z,4.40
2018-01-16T20:50:27.775Z,4.40
2018-01-16T20:52:57.029Z,4.40
2018-01-16T20:55:26.294Z,4.40
2018-01-16T20:57:55.577Z,4.40
2018-01-16T21:00:24.842Z,4.40
2018-01-16T21:02:54.116Z,4.40
2018-01-16T21:05:23.381Z,4.40
2018-01-16T21:07:53.404Z,4.40
2018-01-16T21:10:22.695Z,4.40
2018-01-16T21:12:51.961Z,4.40
2018-01-16T21:15:21.270Z,4.40
2018-01-16T21:17:51.298Z,4.60
2018-01-16T21:20:20.585Z,4.50
2018-01-16T21:22:49.821Z,4.50
2018-01-16T21:25:19.146Z,4.50
2018-01-16T21:27:48.427Z,4.50
2018-01-16T21:30:17.712Z,4.50
2018-01-16T21:32:46.974Z,4.50
2018-01-16T21:35:17.093Z,4.50
2018-01-16T21:37:46.335Z,4.50
2018-01-16T21:40:15.595Z,4.50
2018-01-16T21:42:44.821Z,4.50
2018-01-16T21:45:14.945Z,4.60
2018-01-16T21:47:45.110Z,4.60
2018-01-16T21:50:14.319Z,4.60
2018-01-16T21:52:43.576Z,4.60
2018-01-16T21:55:12.817Z,4.70
2018-01-16T21:57:42.083Z,4.80
2018-01-16T22:00:12.094Z,4.90
2018-01-16T22:02:41.337Z,4.90
2018-01-16T22:05:10.667Z,4.90
2018-01-16T22:07:39.903Z,4.90
2018-01-16T22:10:09.164Z,4.90
2018-01-16T22:12:38.405Z,4.90
2018-01-16T22:15:07.660Z,5.00
2018-01-16T22:17:36.901Z,5.10
2018-01-16T22:20:06.167Z,5.10
2018-01-16T22:22:35.415Z,5.10
2018-01-16T22:25:04.684Z,5.10
2018-01-16T22:27:33.915Z,5.10
2018-01-16T22:30:03.164Z,5.10
2018-01-16T22:32:32.411Z,5.10
2018-01-16T22:35:01.647Z,5.20
2018-01-16T22:37:30.902Z,5.20
2018-01-16T22:40:00.127Z,5.20
2018-01-16T22:42:29.376Z,5.20
2018-01-16T22:44:58.629Z,5.20
2018-01-16T22:47:27.868Z,5.20
2018-01-16T22:49:57.889Z,5.20
2018-01-16T22:52:27.937Z,5.30
2018-01-16T22:54:57.182Z,5.30
2018-01-16T22:57:26.463Z,5.30
2018-01-16T22:59:55.701Z,5.30
2018-01-16T23:02:24.977Z,5.30
2018-01-16T23:04:54.240Z,5.30
2018-01-16T23:07:23.494Z,5.30
2018-01-16T23:09:52.755Z,5.30
2018-01-16T23:12:21.987Z,5.40
2018-01-16T23:14:51.246Z,5.30
2018-01-16T23:17:20.507Z,5.30
2018-01-16T23:19:49.740Z,5.30
2018-01-16T23:22:18.991Z,5.40
2018-01-16T23:24:48.237Z,5.30
2018-01-16T23:27:17.493Z,5.30
2018-01-16T23:29:47.412Z,5.30
2018-01-16T23:32:16.681Z,5.30
2018-01-16T23:34:45.920Z,5.30
2018-01-16T23:37:15.149Z,5.30
2018-01-16T23:39:45.253Z,5.30
2018-01-16T23:42:15.316Z,5.10
2018-01-16T23:44:45.982Z,5.20
2018-01-16T23:47:15.401Z,5.20
2018-01-16T23:49:44.798Z,5.20
2018-01-16T23:52:14.090Z,5.20
2018-01-16T23:54:43.323Z,5.30
2018-01-16T23:57:13.624Z,5.20
2018-01-16T23:59:42.999Z,5.20
